sensor_id;sensor_type;location;lat;lon;timestamp;P1;durP1;ratioP1;P2;durP2;ratioP2
45762;SDS011;37512;52.408;13.356;2023-07-16T00:02:03;7.00;;;2.95;;
45762;SDS011;37512;52.408;13.356;2023-07-16T00:06:05;3.88;;;2.95;;
45762;SDS011;37512;52.408;13.356;2023-07-16T00:10:07;3.58;;;2.42;;
45762;SDS011;37512;52.408;13.356;2023-07-16T00:14:09;8.07;;;2.85;;
45762;SDS011;37512;52.408;13.356;2023-07-16T00:18:13;6.95;;;3.13;;
45762;SDS011;37512;52.408;13.356;2023-07-16T00:22:14;4.75;;;3.00;;
45762;SDS011;37512;52.408;13.356;2023-07-16T00:26:16;7.95;;;2.50;;
45762;SDS011;37512;52.408;13.356;2023-07-16T00:30:18;3.30;;;2.88;;
45762;SDS011;37512;52.408;13.356;2023-07-16T00:34:19;6.90;;;2.85;;
45762;SDS011;37512;52.408;13.356;2023-07-16T00:38:21;3.33;;;2.63;;
45762;SDS011;37512;52.408;13.356;2023-07-16T00:42:25;5.25;;;3.03;;
45762;SDS011;37512;52.408;13.356;2023-07-16T00:46:26;3.53;;;2.85;;
45762;SDS011;37512;52.408;13.356;2023-07-16T00:50:28;4.53;;;3.05;;
45762;SDS011;37512;52.408;13.356;2023-07-16T00:54:35;5.35;;;3.20;;
45762;SDS011;37512;52.408;13.356;2023-07-16T00:58:36;4.05;;;3.40;;
45762;SDS011;37512;52.408;13.356;2023-07-16T01:02:38;6.05;;;3.55;;
45762;SDS011;37512;52.408;13.356;2023-07-16T01:06:45;5.85;;;4.05;;
45762;SDS011;37512;52.408;13.356;2023-07-16T01:10:50;10.38;;;4.70;;
45762;SDS011;37512;52.408;13.356;2023-07-16T01:14:52;7.47;;;4.60;;
45762;SDS011;37512;52.408;13.356;2023-07-16T01:18:55;6.03;;;5.22;;
45762;SDS011;37512;52.408;13.356;2023-07-16T01:31:34;9.98;;;6.00;;
45762;SDS011;37512;52.408;13.356;2023-07-16T01:35:36;5.70;;;4.95;;
45762;SDS011;37512;52.408;13.356;2023-07-16T01:39:38;6.88;;;5.05;;
45762;SDS011;37512;52.408;13.356;2023-07-16T01:43:40;6.28;;;4.10;;
45762;SDS011;37512;52.408;13.356;2023-07-16T01:47:59;6.57;;;3.78;;
45762;SDS011;37512;52.408;13.356;2023-07-16T01:52:07;3.80;;;2.65;;
45762;SDS011;37512;52.408;13.356;2023-07-16T01:56:09;2.90;;;2.60;;
45762;SDS011;37512;52.408;13.356;2023-07-16T02:00:11;3.67;;;2.60;;
45762;SDS011;37512;52.408;13.356;2023-07-16T02:04:12;7.80;;;2.50;;
45762;SDS011;37512;52.408;13.356;2023-07-16T02:08:14;3.63;;;2.22;;
45762;SDS011;37512;52.408;13.356;2023-07-16T02:12:15;3.85;;;2.38;;
45762;SDS011;37512;52.408;13.356;2023-07-16T02:16:17;4.80;;;2.30;;
45762;SDS011;37512;52.408;13.356;2023-07-16T02:20:19;5.40;;;1.85;;
45762;SDS011;37512;52.408;13.356;2023-07-16T02:24:21;3.05;;;2.25;;
45762;SDS011;37512;52.408;13.356;2023-07-16T02:28:22;2.35;;;1.83;;
45762;SDS011;37512;52.408;13.356;2023-07-16T02:32:24;5.05;;;2.13;;
45762;SDS011;37512;52.408;13.356;2023-07-16T02:36:25;2.92;;;2.22;;
45762;SDS011;37512;52.408;13.356;2023-07-16T02:40:27;3.08;;;2.35;;
45762;SDS011;37512;52.408;13.356;2023-07-16T02:44:28;4.30;;;2.47;;
45762;SDS011;37512;52.408;13.356;2023-07-16T02:48:30;5.00;;;2.22;;
45762;SDS011;37512;52.408;13.356;2023-07-16T02:52:32;3.47;;;2.58;;
45762;SDS011;37512;52.408;13.356;2023-07-16T02:56:33;3.75;;;2.50;;
45762;SDS011;37512;52.408;13.356;2023-07-16T03:00:35;5.78;;;2.65;;
45762;SDS011;37512;52.408;13.356;2023-07-16T03:04:37;3.70;;;2.50;;
45762;SDS011;37512;52.408;13.356;2023-07-16T03:08:40;2.85;;;2.33;;
45762;SDS011;37512;52.408;13.356;2023-07-16T03:12:42;2.55;;;2.17;;
45762;SDS011;37512;52.408;13.356;2023-07-16T03:16:44;2.72;;;2.33;;
45762;SDS011;37512;52.408;13.356;2023-07-16T03:20:45;3.17;;;2.72;;
45762;SDS011;37512;52.408;13.356;2023-07-16T03:24:47;3.78;;;2.53;;
45762;SDS011;37512;52.408;13.356;2023-07-16T03:28:48;3.30;;;2.78;;
45762;SDS011;37512;52.408;13.356;2023-07-16T03:32:50;3.80;;;2.63;;
45762;SDS011;37512;52.408;13.356;2023-07-16T03:36:54;3.53;;;2.78;;
45762;SDS011;37512;52.408;13.356;2023-07-16T03:40:55;3.63;;;3.00;;
45762;SDS011;37512;52.408;13.356;2023-07-16T03:44:56;4.57;;;3.10;;
45762;SDS011;37512;52.408;13.356;2023-07-16T03:48:58;3.88;;;3.00;;
45762;SDS011;37512;52.408;13.356;2023-07-16T03:53:00;5.93;;;3.20;;
45762;SDS011;37512;52.408;13.356;2023-07-16T03:57:01;3.60;;;3.00;;
45762;SDS011;37512;52.408;13.356;2023-07-16T04:01:04;4.57;;;3.45;;
45762;SDS011;37512;52.408;13.356;2023-07-16T04:05:05;4.47;;;3.45;;
45762;SDS011;37512;52.408;13.356;2023-07-16T04:09:07;4.93;;;3.50;;
45762;SDS011;37512;52.408;13.356;2023-07-16T04:13:09;4.10;;;3.60;;
45762;SDS011;37512;52.408;13.356;2023-07-16T04:17:11;6.43;;;4.20;;
45762;SDS011;37512;52.408;13.356;2023-07-16T04:21:12;6.78;;;4.03;;
45762;SDS011;37512;52.408;13.356;2023-07-16T04:25:13;5.78;;;4.00;;
45762;SDS011;37512;52.408;13.356;2023-07-16T04:29:15;6.55;;;4.45;;
45762;SDS011;37512;52.408;13.356;2023-07-16T04:33:17;6.28;;;4.72;;
45762;SDS011;37512;52.408;13.356;2023-07-16T04:37:20;4.97;;;4.38;;
45762;SDS011;37512;52.408;13.356;2023-07-16T04:41:21;7.53;;;4.32;;
45762;SDS011;37512;52.408;13.356;2023-07-16T04:45:23;6.68;;;4.05;;
45762;SDS011;37512;52.408;13.356;2023-07-16T04:49:25;6.00;;;4.68;;
45762;SDS011;37512;52.408;13.356;2023-07-16T04:53:27;5.93;;;4.50;;
45762;SDS011;37512;52.408;13.356;2023-07-16T04:57:28;4.93;;;4.43;;
45762;SDS011;37512;52.408;13.356;2023-07-16T05:01:30;6.30;;;4.43;;
45762;SDS011;37512;52.408;13.356;2023-07-16T05:05:31;5.10;;;3.42;;
45762;SDS011;37512;52.408;13.356;2023-07-16T05:09:33;6.63;;;4.15;;
45762;SDS011;37512;52.408;13.356;2023-07-16T05:13:34;4.13;;;3.72;;
45762;SDS011;37512;52.408;13.356;2023-07-16T05:17:36;7.72;;;4.20;;
45762;SDS011;37512;52.408;13.356;2023-07-16T05:21:38;5.80;;;3.58;;
45762;SDS011;37512;52.408;13.356;2023-07-16T05:25:44;4.25;;;3.47;;
45762;SDS011;37512;52.408;13.356;2023-07-16T05:29:47;6.22;;;3.88;;
45762;SDS011;37512;52.408;13.356;2023-07-16T05:33:49;5.78;;;3.42;;
45762;SDS011;37512;52.408;13.356;2023-07-16T05:37:50;5.50;;;3.58;;
45762;SDS011;37512;52.408;13.356;2023-07-16T05:41:53;5.25;;;3.10;;
45762;SDS011;37512;52.408;13.356;2023-07-16T05:45:55;4.45;;;3.05;;
45762;SDS011;37512;52.408;13.356;2023-07-16T05:49:56;4.20;;;3.35;;
45762;SDS011;37512;52.408;13.356;2023-07-16T05:53:58;4.63;;;2.92;;
45762;SDS011;37512;52.408;13.356;2023-07-16T05:57:59;3.78;;;3.00;;
45762;SDS011;37512;52.408;13.356;2023-07-16T06:02:01;4.47;;;2.80;;
45762;SDS011;37512;52.408;13.356;2023-07-16T06:06:03;4.47;;;3.00;;
45762;SDS011;37512;52.408;13.356;2023-07-16T06:10:04;8.13;;;3.53;;
45762;SDS011;37512;52.408;13.356;2023-07-16T06:14:06;2.90;;;2.58;;
45762;SDS011;37512;52.408;13.356;2023-07-16T06:18:08;4.55;;;3.13;;
45762;SDS011;37512;52.408;13.356;2023-07-16T06:22:10;3.17;;;2.05;;
45762;SDS011;37512;52.408;13.356;2023-07-16T06:26:11;3.35;;;2.80;;
45762;SDS011;37512;52.408;13.356;2023-07-16T06:30:13;4.43;;;3.15;;
45762;SDS011;37512;52.408;13.356;2023-07-16T06:34:15;3.33;;;2.63;;
45762;SDS011;37512;52.408;13.356;2023-07-16T06:38:16;5.95;;;2.95;;
45762;SDS011;37512;52.408;13.356;2023-07-16T06:42:18;4.68;;;2.97;;
45762;SDS011;37512;52.408;13.356;2023-07-16T06:46:19;6.72;;;2.55;;
45762;SDS011;37512;52.408;13.356;2023-07-16T06:50:21;4.38;;;2.63;;
45762;SDS011;37512;52.408;13.356;2023-07-16T06:54:24;4.18;;;2.55;;
45762;SDS011;37512;52.408;13.356;2023-07-16T06:58:32;3.13;;;2.78;;
45762;SDS011;37512;52.408;13.356;2023-07-16T07:02:34;2.75;;;2.30;;
45762;SDS011;37512;52.408;13.356;2023-07-16T07:06:36;2.80;;;2.17;;
45762;SDS011;37512;52.408;13.356;2023-07-16T07:10:38;3.90;;;2.53;;
45762;SDS011;37512;52.408;13.356;2023-07-16T07:14:41;4.40;;;2.17;;
45762;SDS011;37512;52.408;13.356;2023-07-16T07:18:43;4.18;;;2.40;;
45762;SDS011;37512;52.408;13.356;2023-07-16T07:22:45;3.08;;;2.22;;
45762;SDS011;37512;52.408;13.356;2023-07-16T07:26:46;3.22;;;2.33;;
45762;SDS011;37512;52.408;13.356;2023-07-16T07:30:49;4.05;;;2.55;;
45762;SDS011;37512;52.408;13.356;2023-07-16T07:34:51;3.88;;;2.70;;
45762;SDS011;37512;52.408;13.356;2023-07-16T07:38:52;3.97;;;2.75;;
45762;SDS011;37512;52.408;13.356;2023-07-16T07:42:54;2.92;;;1.85;;
45762;SDS011;37512;52.408;13.356;2023-07-16T07:46:56;3.08;;;1.88;;
45762;SDS011;37512;52.408;13.356;2023-07-16T07:50:58;4.82;;;2.30;;
45762;SDS011;37512;52.408;13.356;2023-07-16T07:55:05;3.13;;;1.98;;
45762;SDS011;37512;52.408;13.356;2023-07-16T07:59:08;3.60;;;2.05;;
45762;SDS011;37512;52.408;13.356;2023-07-16T08:03:11;2.80;;;2.03;;
45762;SDS011;37512;52.408;13.356;2023-07-16T08:07:15;3.17;;;2.10;;
45762;SDS011;37512;52.408;13.356;2023-07-16T08:11:16;2.63;;;2.13;;
45762;SDS011;37512;52.408;13.356;2023-07-16T08:15:18;3.15;;;2.28;;
45762;SDS011;37512;52.408;13.356;2023-07-16T08:19:20;4.53;;;1.73;;
45762;SDS011;37512;52.408;13.356;2023-07-16T08:23:22;2.97;;;1.70;;
45762;SDS011;37512;52.408;13.356;2023-07-16T08:27:24;2.78;;;1.52;;
45762;SDS011;37512;52.408;13.356;2023-07-16T08:31:25;2.60;;;1.55;;
45762;SDS011;37512;52.408;13.356;2023-07-16T08:35:27;2.50;;;1.60;;
45762;SDS011;37512;52.408;13.356;2023-07-16T08:39:29;2.13;;;1.48;;
45762;SDS011;37512;52.408;13.356;2023-07-16T08:43:32;2.85;;;2.03;;
45762;SDS011;37512;52.408;13.356;2023-07-16T08:47:34;2.83;;;1.75;;
45762;SDS011;37512;52.408;13.356;2023-07-16T08:51:36;5.88;;;2.00;;
45762;SDS011;37512;52.408;13.356;2023-07-16T08:55:40;4.00;;;1.65;;
45762;SDS011;37512;52.408;13.356;2023-07-16T08:59:42;3.40;;;2.05;;
45762;SDS011;37512;52.408;13.356;2023-07-16T09:03:45;3.88;;;2.05;;
45762;SDS011;37512;52.408;13.356;2023-07-16T09:07:48;2.17;;;1.77;;
45762;SDS011;37512;52.408;13.356;2023-07-16T09:11:50;3.45;;;1.65;;
45762;SDS011;37512;52.408;13.356;2023-07-16T09:15:52;2.25;;;1.42;;
45762;SDS011;37512;52.408;13.356;2023-07-16T09:19:55;3.22;;;1.77;;
45762;SDS011;37512;52.408;13.356;2023-07-16T09:23:56;4.80;;;1.95;;
45762;SDS011;37512;52.408;13.356;2023-07-16T09:28:00;3.65;;;1.90;;
45762;SDS011;37512;52.408;13.356;2023-07-16T09:32:04;6.30;;;2.33;;
45762;SDS011;37512;52.408;13.356;2023-07-16T09:36:09;4.47;;;2.00;;
45762;SDS011;37512;52.408;13.356;2023-07-16T09:40:11;3.00;;;2.20;;
45762;SDS011;37512;52.408;13.356;2023-07-16T09:44:13;5.30;;;2.30;;
45762;SDS011;37512;52.408;13.356;2023-07-16T09:48:15;3.17;;;1.70;;
45762;SDS011;37512;52.408;13.356;2023-07-16T09:52:17;3.63;;;1.88;;
45762;SDS011;37512;52.408;13.356;2023-07-16T09:56:19;5.13;;;2.47;;
45762;SDS011;37512;52.408;13.356;2023-07-16T10:00:22;3.45;;;2.05;;
45762;SDS011;37512;52.408;13.356;2023-07-16T10:04:25;3.00;;;1.80;;
45762;SDS011;37512;52.408;13.356;2023-07-16T10:08:32;2.63;;;1.63;;
45762;SDS011;37512;52.408;13.356;2023-07-16T10:12:37;5.38;;;2.30;;
45762;SDS011;37512;52.408;13.356;2023-07-16T10:16:39;2.35;;;1.67;;
45762;SDS011;37512;52.408;13.356;2023-07-16T10:20:41;3.65;;;1.73;;
45762;SDS011;37512;52.408;13.356;2023-07-16T10:24:53;2.72;;;1.75;;
45762;SDS011;37512;52.408;13.356;2023-07-16T10:28:56;2.85;;;1.80;;
45762;SDS011;37512;52.408;13.356;2023-07-16T10:33:01;3.38;;;1.83;;
45762;SDS011;37512;52.408;13.356;2023-07-16T10:37:05;4.53;;;1.88;;
45762;SDS011;37512;52.408;13.356;2023-07-16T10:41:07;4.00;;;2.00;;
45762;SDS011;37512;52.408;13.356;2023-07-16T10:45:09;3.42;;;2.00;;
45762;SDS011;37512;52.408;13.356;2023-07-16T10:50:10;3.17;;;1.83;;
45762;SDS011;37512;52.408;13.356;2023-07-16T10:55:09;2.63;;;1.73;;
45762;SDS011;37512;52.408;13.356;2023-07-16T10:59:11;3.05;;;1.85;;
45762;SDS011;37512;52.408;13.356;2023-07-16T11:03:16;3.28;;;2.28;;
45762;SDS011;37512;52.408;13.356;2023-07-16T11:07:26;4.55;;;2.38;;
45762;SDS011;37512;52.408;13.356;2023-07-16T11:12:26;3.53;;;1.95;;
45762;SDS011;37512;52.408;13.356;2023-07-16T11:17:29;2.95;;;2.17;;
45762;SDS011;37512;52.408;13.356;2023-07-16T11:22:28;2.38;;;1.80;;
45762;SDS011;37512;52.408;13.356;2023-07-16T11:27:32;2.03;;;1.60;;
45762;SDS011;37512;52.408;13.356;2023-07-16T11:32:43;2.55;;;1.70;;
45762;SDS011;37512;52.408;13.356;2023-07-16T11:37:45;5.15;;;2.00;;
45762;SDS011;37512;52.408;13.356;2023-07-16T11:41:54;6.15;;;2.22;;
45762;SDS011;37512;52.408;13.356;2023-07-16T11:45:59;3.60;;;1.70;;
45762;SDS011;37512;52.408;13.356;2023-07-16T11:50:01;5.28;;;2.47;;
45762;SDS011;37512;52.408;13.356;2023-07-16T11:54:03;4.18;;;2.40;;
45762;SDS011;37512;52.408;13.356;2023-07-16T11:58:04;3.10;;;1.85;;
45762;SDS011;37512;52.408;13.356;2023-07-16T12:02:05;3.67;;;1.75;;
45762;SDS011;37512;52.408;13.356;2023-07-16T12:06:08;3.05;;;1.50;;
45762;SDS011;37512;52.408;13.356;2023-07-16T12:10:10;4.22;;;1.90;;
45762;SDS011;37512;52.408;13.356;2023-07-16T12:14:12;3.72;;;1.58;;
45762;SDS011;37512;52.408;13.356;2023-07-16T12:18:14;4.50;;;1.55;;
45762;SDS011;37512;52.408;13.356;2023-07-16T12:22:16;3.55;;;1.80;;
45762;SDS011;37512;52.408;13.356;2023-07-16T12:26:19;8.90;;;1.77;;
45762;SDS011;37512;52.408;13.356;2023-07-16T12:30:20;4.05;;;1.80;;
45762;SDS011;37512;52.408;13.356;2023-07-16T12:34:22;2.17;;;1.23;;
45762;SDS011;37512;52.408;13.356;2023-07-16T12:38:23;2.85;;;1.48;;
45762;SDS011;37512;52.408;13.356;2023-07-16T12:42:25;2.70;;;1.80;;
45762;SDS011;37512;52.408;13.356;2023-07-16T12:46:27;3.05;;;1.70;;
45762;SDS011;37512;52.408;13.356;2023-07-16T12:50:28;2.22;;;1.25;;
45762;SDS011;37512;52.408;13.356;2023-07-16T12:54:30;2.85;;;1.50;;
45762;SDS011;37512;52.408;13.356;2023-07-16T12:58:32;2.88;;;1.67;;
45762;SDS011;37512;52.408;13.356;2023-07-16T13:02:33;4.13;;;1.85;;
45762;SDS011;37512;52.408;13.356;2023-07-16T13:06:35;2.78;;;1.25;;
45762;SDS011;37512;52.408;13.356;2023-07-16T13:10:37;3.58;;;1.65;;
45762;SDS011;37512;52.408;13.356;2023-07-16T13:14:40;5.00;;;1.58;;
45762;SDS011;37512;52.408;13.356;2023-07-16T13:18:41;3.83;;;1.63;;
45762;SDS011;37512;52.408;13.356;2023-07-16T13:22:43;2.08;;;1.40;;
45762;SDS011;37512;52.408;13.356;2023-07-16T13:26:44;5.03;;;1.70;;
45762;SDS011;37512;52.408;13.356;2023-07-16T13:30:49;4.22;;;1.70;;
45762;SDS011;37512;52.408;13.356;2023-07-16T13:34:51;2.92;;;1.50;;
45762;SDS011;37512;52.408;13.356;2023-07-16T13:38:52;2.88;;;1.60;;
45762;SDS011;37512;52.408;13.356;2023-07-16T13:42:54;2.85;;;1.40;;
45762;SDS011;37512;52.408;13.356;2023-07-16T13:46:55;2.45;;;1.30;;
45762;SDS011;37512;52.408;13.356;2023-07-16T13:50:57;5.32;;;1.88;;
45762;SDS011;37512;52.408;13.356;2023-07-16T13:54:59;3.65;;;1.48;;
45762;SDS011;37512;52.408;13.356;2023-07-16T13:59:01;3.47;;;1.55;;
45762;SDS011;37512;52.408;13.356;2023-07-16T14:03:02;1.75;;;1.15;;
45762;SDS011;37512;52.408;13.356;2023-07-16T14:07:04;2.67;;;1.20;;
45762;SDS011;37512;52.408;13.356;2023-07-16T14:11:06;2.67;;;1.35;;
45762;SDS011;37512;52.408;13.356;2023-07-16T14:15:08;3.53;;;1.50;;
45762;SDS011;37512;52.408;13.356;2023-07-16T14:19:10;2.35;;;1.30;;
45762;SDS011;37512;52.408;13.356;2023-07-16T14:23:13;5.18;;;2.00;;
45762;SDS011;37512;52.408;13.356;2023-07-16T14:27:15;2.05;;;1.00;;
45762;SDS011;37512;52.408;13.356;2023-07-16T14:31:19;3.33;;;1.50;;
45762;SDS011;37512;52.408;13.356;2023-07-16T14:35:21;2.45;;;1.20;;
45762;SDS011;37512;52.408;13.356;2023-07-16T14:39:37;2.03;;;1.55;;
45762;SDS011;37512;52.408;13.356;2023-07-16T14:43:39;3.05;;;1.52;;
45762;SDS011;37512;52.408;13.356;2023-07-16T14:47:40;2.75;;;1.45;;
45762;SDS011;37512;52.408;13.356;2023-07-16T14:51:42;2.80;;;1.35;;
45762;SDS011;37512;52.408;13.356;2023-07-16T14:55:50;5.60;;;2.33;;
45762;SDS011;37512;52.408;13.356;2023-07-16T14:59:52;3.17;;;1.40;;
45762;SDS011;37512;52.408;13.356;2023-07-16T15:03:54;2.97;;;1.42;;
45762;SDS011;37512;52.408;13.356;2023-07-16T15:07:56;2.35;;;1.45;;
45762;SDS011;37512;52.408;13.356;2023-07-16T15:11:58;1.92;;;1.10;;
45762;SDS011;37512;52.408;13.356;2023-07-16T15:15:59;2.17;;;1.35;;
45762;SDS011;37512;52.408;13.356;2023-07-16T15:20:01;3.30;;;1.45;;
45762;SDS011;37512;52.408;13.356;2023-07-16T15:24:03;3.47;;;1.38;;
45762;SDS011;37512;52.408;13.356;2023-07-16T15:28:05;2.97;;;1.67;;
45762;SDS011;37512;52.408;13.356;2023-07-16T15:32:07;3.13;;;1.42;;
45762;SDS011;37512;52.408;13.356;2023-07-16T15:36:08;5.20;;;1.48;;
45762;SDS011;37512;52.408;13.356;2023-07-16T15:40:14;3.25;;;1.90;;
45762;SDS011;37512;52.408;13.356;2023-07-16T15:44:16;3.38;;;1.52;;
45762;SDS011;37512;52.408;13.356;2023-07-16T15:48:18;3.30;;;1.45;;
45762;SDS011;37512;52.408;13.356;2023-07-16T15:52:20;3.20;;;1.50;;
45762;SDS011;37512;52.408;13.356;2023-07-16T15:56:24;3.63;;;1.70;;
45762;SDS011;37512;52.408;13.356;2023-07-16T16:00:25;3.72;;;1.52;;
45762;SDS011;37512;52.408;13.356;2023-07-16T16:04:27;4.07;;;1.63;;
45762;SDS011;37512;52.408;13.356;2023-07-16T16:08:29;3.40;;;1.45;;
45762;SDS011;37512;52.408;13.356;2023-07-16T16:12:35;5.40;;;1.50;;
45762;SDS011;37512;52.408;13.356;2023-07-16T16:16:36;4.63;;;1.80;;
45762;SDS011;37512;52.408;13.356;2023-07-16T16:20:53;2.13;;;1.30;;
45762;SDS011;37512;52.408;13.356;2023-07-16T16:25:53;3.00;;;1.52;;
45762;SDS011;37512;52.408;13.356;2023-07-16T16:30:53;3.05;;;1.67;;
45762;SDS011;37512;52.408;13.356;2023-07-16T16:35:53;3.90;;;1.88;;
45762;SDS011;37512;52.408;13.356;2023-07-16T16:41:01;2.92;;;1.70;;
45762;SDS011;37512;52.408;13.356;2023-07-16T16:46:01;3.13;;;1.50;;
45762;SDS011;37512;52.408;13.356;2023-07-16T16:51:01;3.35;;;1.45;;
45762;SDS011;37512;52.408;13.356;2023-07-16T17:00:14;4.28;;;1.83;;
45762;SDS011;37512;52.408;13.356;2023-07-16T17:05:16;2.60;;;1.60;;
45762;SDS011;37512;52.408;13.356;2023-07-16T17:09:18;4.72;;;1.65;;
45762;SDS011;37512;52.408;13.356;2023-07-16T17:14:18;3.85;;;1.77;;
45762;SDS011;37512;52.408;13.356;2023-07-16T17:19:18;2.95;;;1.63;;
45762;SDS011;37512;52.408;13.356;2023-07-16T17:24:18;3.95;;;1.40;;
45762;SDS011;37512;52.408;13.356;2023-07-16T17:29:18;2.40;;;1.92;;
45762;SDS011;37512;52.408;13.356;2023-07-16T17:34:19;2.70;;;1.40;;
45762;SDS011;37512;52.408;13.356;2023-07-16T17:39:19;3.75;;;1.60;;
45762;SDS011;37512;52.408;13.356;2023-07-16T17:44:20;4.68;;;1.52;;
45762;SDS011;37512;52.408;13.356;2023-07-16T17:49:21;6.50;;;2.30;;
45762;SDS011;37512;52.408;13.356;2023-07-16T17:54:21;3.47;;;1.50;;
45762;SDS011;37512;52.408;13.356;2023-07-16T17:58:23;3.67;;;2.00;;
45762;SDS011;37512;52.408;13.356;2023-07-16T18:02:35;3.83;;;2.15;;
45762;SDS011;37512;52.408;13.356;2023-07-16T18:07:36;4.20;;;1.88;;
45762;SDS011;37512;52.408;13.356;2023-07-16T18:12:36;4.03;;;2.30;;
45762;SDS011;37512;52.408;13.356;2023-07-16T18:17:36;4.70;;;1.93;;
45762;SDS011;37512;52.408;13.356;2023-07-16T18:22:39;5.10;;;1.55;;
45762;SDS011;37512;52.408;13.356;2023-07-16T18:27:39;5.40;;;1.60;;
45762;SDS011;37512;52.408;13.356;2023-07-16T18:32:40;5.03;;;2.20;;
45762;SDS011;37512;52.408;13.356;2023-07-16T18:37:40;6.73;;;4.47;;
45762;SDS011;37512;52.408;13.356;2023-07-16T18:42:39;6.83;;;3.37;;
45762;SDS011;37512;52.408;13.356;2023-07-16T18:47:38;6.72;;;2.85;;
45762;SDS011;37512;52.408;13.356;2023-07-16T18:51:43;2.75;;;1.58;;
45762;SDS011;37512;52.408;13.356;2023-07-16T18:55:46;3.75;;;2.10;;
45762;SDS011;37512;52.408;13.356;2023-07-16T19:00:47;6.05;;;2.35;;
45762;SDS011;37512;52.408;13.356;2023-07-16T19:05:45;3.75;;;2.20;;
45762;SDS011;37512;52.408;13.356;2023-07-16T19:09:47;2.67;;;1.73;;
45762;SDS011;37512;52.408;13.356;2023-07-16T19:14:11;3.45;;;1.90;;
45762;SDS011;37512;52.408;13.356;2023-07-16T19:18:13;8.65;;;2.40;;
45762;SDS011;37512;52.408;13.356;2023-07-16T19:22:16;5.15;;;2.00;;
45762;SDS011;37512;52.408;13.356;2023-07-16T19:26:18;5.38;;;2.13;;
45762;SDS011;37512;52.408;13.356;2023-07-16T19:30:20;3.55;;;1.90;;
45762;SDS011;37512;52.408;13.356;2023-07-16T19:34:21;5.28;;;2.05;;
45762;SDS011;37512;52.408;13.356;2023-07-16T19:38:23;4.78;;;1.92;;
45762;SDS011;37512;52.408;13.356;2023-07-16T19:42:25;4.88;;;1.92;;
45762;SDS011;37512;52.408;13.356;2023-07-16T19:46:28;4.53;;;2.28;;
45762;SDS011;37512;52.408;13.356;2023-07-16T19:50:30;4.43;;;2.28;;
45762;SDS011;37512;52.408;13.356;2023-07-16T19:54:32;6.55;;;4.05;;
45762;SDS011;37512;52.408;13.356;2023-07-16T19:58:34;7.82;;;5.00;;
45762;SDS011;37512;52.408;13.356;2023-07-16T20:02:35;7.60;;;4.88;;
45762;SDS011;37512;52.408;13.356;2023-07-16T20:06:37;8.93;;;4.90;;
45762;SDS011;37512;52.408;13.356;2023-07-16T20:10:48;10.10;;;5.45;;
45762;SDS011;37512;52.408;13.356;2023-07-16T20:14:50;7.38;;;5.40;;
45762;SDS011;37512;52.408;13.356;2023-07-16T20:18:52;9.85;;;6.25;;
45762;SDS011;37512;52.408;13.356;2023-07-16T20:22:54;11.38;;;6.65;;
45762;SDS011;37512;52.408;13.356;2023-07-16T20:26:57;13.05;;;7.40;;
45762;SDS011;37512;52.408;13.356;2023-07-16T20:30:58;10.43;;;6.43;;
45762;SDS011;37512;52.408;13.356;2023-07-16T20:35:00;9.85;;;6.43;;
45762;SDS011;37512;52.408;13.356;2023-07-16T20:39:02;13.98;;;6.18;;
45762;SDS011;37512;52.408;13.356;2023-07-16T20:43:03;7.00;;;4.95;;
45762;SDS011;37512;52.408;13.356;2023-07-16T20:47:05;6.82;;;4.80;;
45762;SDS011;37512;52.408;13.356;2023-07-16T20:51:07;10.05;;;4.65;;
45762;SDS011;37512;52.408;13.356;2023-07-16T20:55:11;10.07;;;5.13;;
45762;SDS011;37512;52.408;13.356;2023-07-16T20:59:13;8.10;;;4.75;;
45762;SDS011;37512;52.408;13.356;2023-07-16T21:03:15;7.13;;;4.70;;
45762;SDS011;37512;52.408;13.356;2023-07-16T21:07:17;9.13;;;6.15;;
45762;SDS011;37512;52.408;13.356;2023-07-16T21:11:18;6.57;;;4.72;;
45762;SDS011;37512;52.408;13.356;2023-07-16T21:15:20;10.50;;;6.75;;
45762;SDS011;37512;52.408;13.356;2023-07-16T21:19:22;10.60;;;8.15;;
45762;SDS011;37512;52.408;13.356;2023-07-16T21:23:24;12.30;;;6.75;;
45762;SDS011;37512;52.408;13.356;2023-07-16T21:27:29;9.90;;;6.97;;
45762;SDS011;37512;52.408;13.356;2023-07-16T21:31:33;9.65;;;5.57;;
45762;SDS011;37512;52.408;13.356;2023-07-16T21:35:34;8.35;;;5.63;;
45762;SDS011;37512;52.408;13.356;2023-07-16T21:39:36;9.93;;;4.72;;
45762;SDS011;37512;52.408;13.356;2023-07-16T21:43:37;7.88;;;4.68;;
45762;SDS011;37512;52.408;13.356;2023-07-16T21:47:39;8.23;;;4.40;;
45762;SDS011;37512;52.408;13.356;2023-07-16T21:51:41;7.30;;;4.13;;
45762;SDS011;37512;52.408;13.356;2023-07-16T21:55:43;10.90;;;4.20;;
45762;SDS011;37512;52.408;13.356;2023-07-16T21:59:44;10.13;;;4.10;;
45762;SDS011;37512;52.408;13.356;2023-07-16T22:03:47;9.10;;;4.93;;
45762;SDS011;37512;52.408;13.356;2023-07-16T22:07:49;11.77;;;4.20;;
45762;SDS011;37512;52.408;13.356;2023-07-16T22:11:51;9.65;;;4.18;;
45762;SDS011;37512;52.408;13.356;2023-07-16T22:15:53;5.07;;;3.70;;
45762;SDS011;37512;52.408;13.356;2023-07-16T22:19:54;6.72;;;3.42;;
45762;SDS011;37512;52.408;13.356;2023-07-16T22:23:56;9.98;;;3.40;;
45762;SDS011;37512;52.408;13.356;2023-07-16T22:27:57;6.32;;;3.38;;
45762;SDS011;37512;52.408;13.356;2023-07-16T22:31:59;11.18;;;3.90;;
45762;SDS011;37512;52.408;13.356;2023-07-16T22:36:01;5.13;;;2.80;;
45762;SDS011;37512;52.408;13.356;2023-07-16T22:40:06;4.80;;;2.95;;
45762;SDS011;37512;52.408;13.356;2023-07-16T22:44:08;6.18;;;2.78;;
45762;SDS011;37512;52.408;13.356;2023-07-16T22:48:10;4.35;;;2.58;;
45762;SDS011;37512;52.408;13.356;2023-07-16T22:52:12;4.97;;;2.65;;
45762;SDS011;37512;52.408;13.356;2023-07-16T22:56:13;4.63;;;2.78;;
45762;SDS011;37512;52.408;13.356;2023-07-16T23:00:15;5.65;;;2.63;;
45762;SDS011;37512;52.408;13.356;2023-07-16T23:04:17;6.78;;;2.70;;
45762;SDS011;37512;52.408;13.356;2023-07-16T23:08:18;5.32;;;2.53;;
45762;SDS011;37512;52.408;13.356;2023-07-16T23:12:20;5.63;;;3.22;;
45762;SDS011;37512;52.408;13.356;2023-07-16T23:16:21;5.88;;;3.58;;
45762;SDS011;37512;52.408;13.356;2023-07-16T23:20:23;7.03;;;3.58;;
45762;SDS011;37512;52.408;13.356;2023-07-16T23:24:25;4.15;;;3.00;;
45762;SDS011;37512;52.408;13.356;2023-07-16T23:28:27;6.97;;;3.17;;
45762;SDS011;37512;52.408;13.356;2023-07-16T23:32:28;7.88;;;2.80;;
45762;SDS011;37512;52.408;13.356;2023-07-16T23:36:30;6.70;;;2.75;;
45762;SDS011;37512;52.408;13.356;2023-07-16T23:40:31;3.58;;;2.58;;
45762;SDS011;37512;52.408;13.356;2023-07-16T23:44:33;5.30;;;2.63;;
45762;SDS011;37512;52.408;13.356;2023-07-16T23:48:35;4.15;;;2.53;;
45762;SDS011;37512;52.408;13.356;2023-07-16T23:52:36;5.38;;;2.50;;
45762;SDS011;37512;52.408;13.356;2023-07-16T23:56:38;4.75;;;2.70;;
